Goldman, Louisiana
Current Conditions -  °F | °C
As of 10:15 AM on Wednesday 28 Jan 2015 (Local Time) from KHEZ Reporting Station
Clear Clear  
Wind Chill: 57°   Ceiling: Unl
Heat Index: 57°   Visibility: 10mi
Dew Point: 37°   Wind: 7mph
Humidity: 48%   Direction: 160°SSE
Pressure: 30.28"   Gusts: NA
Location:  31.835°N, 91.3655°W
Report Text: KHEZ 281615Z AUTO 16006KT 10SM CLR 14/03 A3028 RMK AO1
Loading
Personal Weather Stations






























Interactive Weather Map New forecast layout! Learn more

10-Day Weather Forecast

Advertisements
Track Severe Weather on mobile